createdAt,value
2023-05-16T00:01:10.707Z,19.02
2023-05-16T00:03:38.901Z,19.02
2023-05-16T00:06:06.963Z,15.95
2023-05-16T00:08:36.403Z,14.27
2023-05-16T00:11:04.238Z,15.65
2023-05-16T00:13:31.959Z,15.27
2023-05-16T00:16:02.546Z,14.48
2023-05-16T00:18:30.415Z,14.53
2023-05-16T00:20:58.597Z,13.73
2023-05-16T00:23:26.293Z,12.80
2023-05-16T00:25:56.061Z,13.18
2023-05-16T00:28:23.982Z,14.18
2023-05-16T00:30:51.718Z,13.85
2023-05-16T00:33:19.529Z,14.55
2023-05-16T00:35:47.391Z,13.32
2023-05-16T00:38:15.186Z,13.65
2023-05-16T00:40:42.948Z,11.20
2023-05-16T00:43:12.137Z,10.80
2023-05-16T00:45:39.925Z,11.07
2023-05-16T00:48:09.391Z,9.48
2023-05-16T00:50:38.362Z,8.68
2023-05-16T00:53:07.166Z,8.30
2023-05-16T00:55:35.014Z,9.23
2023-05-16T00:58:02.923Z,8.75
2023-05-16T01:00:32.646Z,9.27
2023-05-16T01:03:01.130Z,9.17
2023-05-16T01:05:30.157Z,9.20
2023-05-16T01:07:58.102Z,8.45
2023-05-16T01:10:31.267Z,9.48
2023-05-16T01:13:10.052Z,9.40
2023-05-16T01:15:45.911Z,7.93
2023-05-16T01:18:23.362Z,8.07
2023-05-16T01:20:57.888Z,8.25
2023-05-16T01:23:41.489Z,8.27
2023-05-16T01:26:16.994Z,7.57
2023-05-16T01:28:46.381Z,7.57
2023-05-16T01:31:14.259Z,8.30
2023-05-16T01:33:42.058Z,7.70
2023-05-16T01:36:18.364Z,7.57
2023-05-16T01:38:55.300Z,6.60
2023-05-16T01:41:28.792Z,7.20
2023-05-16T01:44:01.440Z,5.83
2023-05-16T01:46:35.207Z,6.93
2023-05-16T01:49:08.122Z,6.20
2023-05-16T01:51:40.418Z,6.17
2023-05-16T01:54:13.740Z,6.13
2023-05-16T01:56:49.362Z,4.80
2023-05-16T01:59:17.460Z,4.30
2023-05-16T02:01:45.333Z,4.23
2023-05-16T02:04:15.098Z,3.57
2023-05-16T02:06:43.449Z,2.73
2023-05-16T02:09:11.391Z,2.80
2023-05-16T02:11:43.461Z,3.30
2023-05-16T02:14:11.487Z,3.57
2023-05-16T02:16:39.883Z,3.70
2023-05-16T02:19:07.750Z,3.83
2023-05-16T02:21:35.680Z,3.70
2023-05-16T02:24:03.485Z,3.60
2023-05-16T02:26:31.244Z,4.33
2023-05-16T02:29:00.552Z,4.03
2023-05-16T02:31:29.204Z,4.13
2023-05-16T02:33:58.381Z,4.27
2023-05-16T02:36:26.277Z,3.83
2023-05-16T02:38:54.125Z,3.67
2023-05-16T02:41:24.011Z,3.67
2023-05-16T02:43:51.839Z,4.03
2023-05-16T02:46:25.619Z,4.80
2023-05-16T02:48:53.642Z,3.90
2023-05-16T02:51:22.539Z,3.90
2023-05-16T02:53:50.541Z,4.60
2023-05-16T02:56:18.504Z,4.73
2023-05-16T02:58:49.835Z,4.27
2023-05-16T03:01:18.025Z,5.10
2023-05-16T03:03:47.465Z,4.90
2023-05-16T03:06:15.389Z,4.97
2023-05-16T03:08:43.203Z,5.70
2023-05-16T03:11:11.193Z,5.17
2023-05-16T03:13:38.961Z,5.73
2023-05-16T03:16:07.476Z,6.10
2023-05-16T03:18:36.733Z,6.00
2023-05-16T03:21:06.231Z,5.40
2023-05-16T03:23:34.081Z,5.13
2023-05-16T03:26:04.607Z,4.83
2023-05-16T03:28:32.392Z,5.27
2023-05-16T03:31:00.521Z,5.47
2023-05-16T03:33:28.420Z,4.90
2023-05-16T03:35:56.353Z,5.47
2023-05-16T03:38:25.628Z,5.37
2023-05-16T03:40:53.429Z,4.87
2023-05-16T03:43:21.400Z,4.53
2023-05-16T03:45:49.257Z,4.33
2023-05-16T03:48:17.115Z,4.57
2023-05-16T03:50:45.644Z,4.67
2023-05-16T03:53:13.370Z,4.47
2023-05-16T03:55:42.469Z,4.67
2023-05-16T03:58:10.266Z,4.50
2023-05-16T04:00:38.028Z,4.63
2023-05-16T04:03:05.910Z,4.80
2023-05-16T04:05:33.782Z,4.37
2023-05-16T04:08:01.676Z,4.80
2023-05-16T04:10:29.440Z,4.57
2023-05-16T04:12:58.595Z,5.50
2023-05-16T04:15:26.440Z,5.00
2023-05-16T04:17:54.478Z,4.50
2023-05-16T04:20:22.265Z,4.80
2023-05-16T04:22:50.018Z,3.50
2023-05-16T04:25:17.859Z,3.87
2023-05-16T04:27:45.736Z,3.63
2023-05-16T04:30:15.600Z,4.63
2023-05-16T04:32:43.703Z,4.33
2023-05-16T04:35:12.110Z,4.73
2023-05-16T04:37:39.951Z,3.90
2023-05-16T04:40:09.888Z,3.87
2023-05-16T04:42:37.809Z,4.23
2023-05-16T04:45:10.906Z,3.43
2023-05-16T04:47:40.085Z,4.37
2023-05-16T04:50:09.996Z,4.20
2023-05-16T04:52:38.188Z,4.37
2023-05-16T04:55:06.902Z,4.13
2023-05-16T04:57:35.117Z,4.37
2023-05-16T05:00:07.885Z,4.20
2023-05-16T05:02:35.787Z,4.40
2023-05-16T05:05:05.473Z,4.37
2023-05-16T05:07:34.732Z,3.87
2023-05-16T05:10:02.970Z,4.33
2023-05-16T05:12:30.800Z,4.63
2023-05-16T05:14:58.616Z,4.07
2023-05-16T05:17:26.560Z,4.30
2023-05-16T05:19:54.457Z,4.30
2023-05-16T05:22:23.576Z,4.63
2023-05-16T05:24:51.927Z,3.90
2023-05-16T05:27:19.753Z,3.90
2023-05-16T05:29:47.551Z,4.17
2023-05-16T05:32:15.372Z,4.17
2023-05-16T05:34:43.481Z,3.83
2023-05-16T05:37:11.426Z,3.83
2023-05-16T05:39:40.918Z,3.20
2023-05-16T05:42:08.822Z,3.60
2023-05-16T05:44:37.934Z,3.87
2023-05-16T05:47:07.211Z,4.17
2023-05-16T05:49:35.833Z,3.60
2023-05-16T05:52:03.831Z,3.33
2023-05-16T05:54:31.590Z,3.87
2023-05-16T05:57:01.039Z,3.00
2023-05-16T05:59:28.770Z,3.63
2023-05-16T06:01:56.972Z,3.90
2023-05-16T06:04:24.766Z,3.60
2023-05-16T06:06:53.170Z,3.60
2023-05-16T06:09:22.502Z,2.93
2023-05-16T06:11:51.590Z,3.50
2023-05-16T06:14:21.365Z,3.23
2023-05-16T06:16:49.181Z,3.50
2023-05-16T06:19:17.125Z,4.40
2023-05-16T06:21:45.221Z,4.03
2023-05-16T06:24:12.998Z,3.50
2023-05-16T06:26:40.785Z,3.67
2023-05-16T06:29:08.788Z,3.27
2023-05-16T06:31:38.219Z,2.67
2023-05-16T06:34:06.082Z,2.60
2023-05-16T06:36:33.836Z,3.97
2023-05-16T06:39:01.681Z,3.03
2023-05-16T06:41:29.470Z,3.10
2023-05-16T06:43:57.639Z,3.30
2023-05-16T06:46:26.293Z,3.13
2023-05-16T06:48:55.589Z,3.20
2023-05-16T06:51:23.564Z,3.75
2023-05-16T06:53:51.366Z,3.78
2023-05-16T06:56:19.189Z,2.85
2023-05-16T06:58:47.104Z,3.25
2023-05-16T07:01:15.149Z,2.95
2023-05-16T07:03:43.462Z,2.70
2023-05-16T07:06:12.664Z,3.08
2023-05-16T07:08:40.916Z,2.80
2023-05-16T07:11:08.817Z,2.92
2023-05-16T07:13:36.681Z,2.97
2023-05-16T07:16:04.841Z,2.45
2023-05-16T07:18:35.166Z,3.00
2023-05-16T07:21:03.070Z,2.47
2023-05-16T07:23:32.329Z,2.95
2023-05-16T07:26:00.784Z,2.25
2023-05-16T07:28:28.680Z,2.73
2023-05-16T07:30:58.682Z,2.57
2023-05-16T07:33:27.389Z,2.88
2023-05-16T07:36:07.766Z,2.92
2023-05-16T07:38:44.515Z,2.40
2023-05-16T07:41:12.494Z,2.60
2023-05-16T07:43:42.628Z,2.47
2023-05-16T07:46:11.248Z,2.15
2023-05-16T07:48:41.123Z,2.60
2023-05-16T07:51:12.437Z,2.30
2023-05-16T07:53:40.296Z,2.50
2023-05-16T07:56:09.936Z,2.50
2023-05-16T07:58:37.990Z,4.25
2023-05-16T08:01:05.960Z,2.40
2023-05-16T08:03:33.944Z,2.30
2023-05-16T08:06:02.094Z,1.88
2023-05-16T08:08:29.987Z,2.17
2023-05-16T08:10:57.873Z,2.45
2023-05-16T08:13:27.136Z,1.63
2023-05-16T08:15:55.039Z,2.35
2023-05-16T08:18:23.046Z,1.58
2023-05-16T08:20:51.278Z,1.73
2023-05-16T08:23:20.025Z,1.88
2023-05-16T08:25:48.025Z,5.50
2023-05-16T08:28:15.814Z,4.65
2023-05-16T08:30:46.518Z,1.85
2023-05-16T08:33:16.073Z,1.73
2023-05-16T08:35:44.299Z,1.65
2023-05-16T08:38:12.139Z,1.88
2023-05-16T08:40:41.202Z,1.73
2023-05-16T08:43:09.484Z,2.70
2023-05-16T08:45:37.412Z,1.70
2023-05-16T08:48:10.464Z,1.60
2023-05-16T08:50:38.817Z,1.25
2023-05-16T08:53:08.495Z,1.40
2023-05-16T08:55:37.310Z,1.60
2023-05-16T08:58:05.698Z,2.33
2023-05-16T09:00:33.948Z,1.70
2023-05-16T09:03:02.441Z,1.73
2023-05-16T09:05:32.158Z,1.58
2023-05-16T09:08:00.500Z,1.70
2023-05-16T09:10:28.413Z,1.60
2023-05-16T09:12:56.257Z,1.60
2023-05-16T09:15:24.127Z,1.42
2023-05-16T09:17:52.669Z,1.70
2023-05-16T09:20:21.501Z,1.42
2023-05-16T09:22:54.901Z,1.60
2023-05-16T09:27:54.849Z,1.23
2023-05-16T09:30:24.956Z,1.25
2023-05-16T09:32:53.143Z,1.23
2023-05-16T09:35:35.058Z,1.10
2023-05-16T09:38:15.062Z,1.67
2023-05-16T09:40:44.443Z,1.42
2023-05-16T09:43:17.150Z,1.50
2023-05-16T09:45:47.924Z,1.20
2023-05-16T09:48:17.000Z,1.88
2023-05-16T09:50:49.834Z,1.40
2023-05-16T09:53:19.514Z,1.63
2023-05-16T09:55:47.347Z,1.40
2023-05-16T09:58:18.469Z,0.93
2023-05-16T10:00:47.038Z,1.23
2023-05-16T10:03:16.480Z,1.42
2023-05-16T10:05:44.528Z,1.50
2023-05-16T10:08:13.432Z,1.20
2023-05-16T10:10:42.979Z,1.42
2023-05-16T10:13:12.586Z,1.08
2023-05-16T10:15:41.143Z,1.20
2023-05-16T10:18:13.097Z,1.65
2023-05-16T10:20:43.355Z,0.90
2023-05-16T10:23:17.911Z,1.52
2023-05-16T10:25:48.966Z,1.10
2023-05-16T10:28:17.602Z,1.23
2023-05-16T10:30:46.902Z,1.27
2023-05-16T10:33:18.158Z,1.33
2023-05-16T10:35:46.938Z,1.17
2023-05-16T10:38:17.634Z,0.95
2023-05-16T10:40:48.328Z,1.75
2023-05-16T10:43:26.714Z,1.73
2023-05-16T10:45:58.696Z,1.30
2023-05-16T10:48:33.665Z,1.10
2023-05-16T10:51:03.145Z,1.38
2023-05-16T10:53:33.376Z,1.20
2023-05-16T10:56:12.994Z,1.00
2023-05-16T10:58:45.736Z,1.25
2023-05-16T11:01:22.223Z,1.40
2023-05-16T11:04:08.204Z,1.35
2023-05-16T11:06:44.935Z,1.10
2023-05-16T11:09:22.376Z,1.20
2023-05-16T11:11:58.572Z,1.17
2023-05-16T11:14:28.813Z,1.40
2023-05-16T11:17:03.124Z,1.20
2023-05-16T11:19:33.621Z,1.13
2023-05-16T11:22:22.884Z,1.27
2023-05-16T11:24:53.563Z,1.20
2023-05-16T11:27:25.382Z,1.40
2023-05-16T11:29:53.845Z,0.95
2023-05-16T11:32:23.102Z,1.05
2023-05-16T11:34:52.046Z,1.27
2023-05-16T11:37:21.122Z,1.02
2023-05-16T11:39:49.262Z,1.55
2023-05-16T11:42:17.994Z,1.10
2023-05-16T11:44:47.380Z,0.88
2023-05-16T11:47:15.652Z,1.48
2023-05-16T11:49:43.636Z,1.27
2023-05-16T11:52:11.588Z,1.10
2023-05-16T11:54:41.526Z,1.17
2023-05-16T11:57:10.238Z,1.20
2023-05-16T11:59:38.685Z,0.93
2023-05-16T12:02:09.805Z,1.38
2023-05-16T12:04:38.686Z,1.30
2023-05-16T12:07:06.549Z,1.35
2023-05-16T12:09:34.339Z,1.42
2023-05-16T12:12:06.934Z,1.23
2023-05-16T12:14:38.255Z,1.52
2023-05-16T12:17:08.359Z,1.40
2023-05-16T12:19:36.375Z,1.15
2023-05-16T12:22:04.396Z,1.70
2023-05-16T12:24:32.519Z,1.48
2023-05-16T12:27:00.396Z,1.50
2023-05-16T12:29:28.505Z,1.20
2023-05-16T12:31:56.535Z,1.83
2023-05-16T12:34:30.850Z,1.15
2023-05-16T12:37:02.148Z,1.35
2023-05-16T12:39:38.054Z,1.55
2023-05-16T12:42:07.293Z,1.15
2023-05-16T12:44:35.444Z,1.17
2023-05-16T12:47:03.654Z,1.35
2023-05-16T12:49:34.515Z,1.55
2023-05-16T12:52:05.689Z,1.38
2023-05-16T12:54:34.491Z,0.95
2023-05-16T12:57:02.334Z,1.02
2023-05-16T12:59:31.313Z,0.82
2023-05-16T13:01:59.292Z,1.10
2023-05-16T13:04:27.177Z,1.10
2023-05-16T13:06:59.562Z,1.20
2023-05-16T13:09:32.076Z,1.23
2023-05-16T13:12:00.747Z,1.25
2023-05-16T13:14:28.784Z,1.17
2023-05-16T13:16:56.658Z,1.08
2023-05-16T13:19:24.792Z,1.25
2023-05-16T13:21:52.781Z,1.23
2023-05-16T13:24:21.992Z,1.30
2023-05-16T13:26:49.874Z,1.10
2023-05-16T13:29:17.741Z,1.20
2023-05-16T13:31:45.807Z,1.08
2023-05-16T13:34:13.674Z,1.05
2023-05-16T13:36:53.046Z,1.23
2023-05-16T13:39:24.092Z,2.85
2023-05-16T13:41:52.505Z,3.65
2023-05-16T13:44:21.481Z,1.10
2023-05-16T13:46:49.548Z,1.27
2023-05-16T13:49:17.850Z,1.45
2023-05-16T13:51:45.806Z,1.30
2023-05-16T13:54:13.705Z,1.02
2023-05-16T13:56:43.189Z,1.33
2023-05-16T13:59:14.259Z,0.93
2023-05-16T14:01:46.458Z,0.93
2023-05-16T14:04:14.434Z,0.90
2023-05-16T14:06:42.374Z,1.15
2023-05-16T14:09:10.804Z,1.05
2023-05-16T14:11:38.584Z,1.08
2023-05-16T14:14:07.734Z,1.50
2023-05-16T14:16:35.650Z,1.48
2023-05-16T14:19:03.619Z,1.15
2023-05-16T14:21:31.473Z,1.00
2023-05-16T14:23:59.309Z,12.13
2023-05-16T14:26:27.459Z,1.63
2023-05-16T14:28:56.103Z,1.20
2023-05-16T14:31:25.480Z,1.13
2023-05-16T14:33:53.415Z,1.85
2023-05-16T14:36:21.230Z,1.20
2023-05-16T14:38:49.494Z,0.90
2023-05-16T14:41:17.459Z,1.23
2023-05-16T14:43:45.560Z,1.25
2023-05-16T14:46:14.248Z,1.15
2023-05-16T14:48:43.487Z,1.23
2023-05-16T14:51:11.970Z,2.30
2023-05-16T14:53:39.990Z,1.33
2023-05-16T14:56:08.158Z,1.23
2023-05-16T14:58:36.043Z,1.23
2023-05-16T15:01:04.240Z,1.27
2023-05-16T15:03:43.304Z,1.38
2023-05-16T15:06:16.600Z,1.30
2023-05-16T15:08:44.560Z,0.93
2023-05-16T15:11:12.646Z,1.30
2023-05-16T15:13:40.513Z,1.25
2023-05-16T15:16:08.737Z,1.65
2023-05-16T15:18:36.657Z,1.35
2023-05-16T15:21:04.813Z,1.33
2023-05-16T15:23:34.094Z,1.73
2023-05-16T15:26:02.091Z,1.10
2023-05-16T15:28:29.909Z,1.30
2023-05-16T15:30:57.736Z,1.25
2023-05-16T15:33:25.552Z,1.60
2023-05-16T15:35:53.630Z,1.50
2023-05-16T15:38:21.424Z,1.40
2023-05-16T15:40:55.303Z,1.58
2023-05-16T15:43:25.882Z,1.58
2023-05-16T15:45:53.735Z,1.65
2023-05-16T15:48:21.614Z,1.60
2023-05-16T15:50:49.512Z,1.67
2023-05-16T15:53:17.422Z,1.50
2023-05-16T15:55:45.271Z,1.60
2023-05-16T15:58:14.569Z,1.33
2023-05-16T16:00:42.741Z,1.33
2023-05-16T16:03:10.768Z,1.40
2023-05-16T16:05:38.745Z,2.00
2023-05-16T16:08:06.546Z,2.08
2023-05-16T16:10:34.632Z,1.60
2023-05-16T16:13:03.505Z,1.58
2023-05-16T16:15:36.049Z,1.30
2023-05-16T16:18:04.262Z,1.50
2023-05-16T16:20:32.129Z,3.10
2023-05-16T16:23:00.109Z,1.52
2023-05-16T16:25:28.175Z,1.38
2023-05-16T16:27:56.269Z,1.30
2023-05-16T16:30:24.226Z,1.30
2023-05-16T16:32:53.506Z,1.30
2023-05-16T16:35:22.488Z,1.10
2023-05-16T16:38:02.494Z,1.42
2023-05-16T16:40:33.997Z,1.13
2023-05-16T16:43:02.351Z,1.17
2023-05-16T16:45:31.023Z,1.40
2023-05-16T16:48:00.668Z,1.23
2023-05-16T16:50:28.873Z,1.25
2023-05-16T16:52:58.940Z,1.25
2023-05-16T16:55:27.025Z,1.30
2023-05-16T16:57:55.075Z,1.63
2023-05-16T17:00:23.294Z,1.65
2023-05-16T17:02:51.349Z,1.45
2023-05-16T17:05:20.757Z,1.50
2023-05-16T17:07:48.832Z,1.73
2023-05-16T17:10:17.761Z,1.48
2023-05-16T17:12:49.240Z,2.13
2023-05-16T17:15:18.051Z,2.10
2023-05-16T17:17:46.739Z,1.90
2023-05-16T17:20:14.591Z,1.90
2023-05-16T17:22:44.681Z,2.22
2023-05-16T17:25:12.571Z,1.95
2023-05-16T17:27:40.738Z,2.40
2023-05-16T17:30:10.471Z,2.50
2023-05-16T17:32:39.843Z,2.33
2023-05-16T17:35:08.179Z,1.95
2023-05-16T17:37:36.276Z,2.10
2023-05-16T17:40:08.338Z,2.38
2023-05-16T17:42:37.068Z,2.05
2023-05-16T17:45:05.565Z,2.58
2023-05-16T17:47:33.450Z,2.20
2023-05-16T17:50:01.494Z,2.75
2023-05-16T17:52:41.470Z,2.47
2023-05-16T17:55:10.980Z,2.83
2023-05-16T17:57:39.354Z,2.40
2023-05-16T18:00:09.229Z,2.72
2023-05-16T18:02:39.386Z,2.78
2023-05-16T18:05:08.204Z,2.92
2023-05-16T18:07:36.185Z,2.55
2023-05-16T18:10:04.958Z,2.45
2023-05-16T18:12:34.300Z,2.55
2023-05-16T18:15:02.597Z,2.67
2023-05-16T18:17:30.450Z,3.40
2023-05-16T18:19:58.538Z,2.97
2023-05-16T18:22:27.121Z,2.67
2023-05-16T18:24:54.923Z,2.83
2023-05-16T18:27:22.815Z,2.63
2023-05-16T18:29:52.020Z,3.70
2023-05-16T18:32:22.220Z,2.70
2023-05-16T18:34:50.261Z,2.75
2023-05-16T18:37:18.226Z,2.88
2023-05-16T18:39:46.056Z,2.47
2023-05-16T18:42:14.100Z,2.63
2023-05-16T18:44:41.982Z,2.83
2023-05-16T18:47:11.253Z,2.80
2023-05-16T18:49:39.581Z,2.65
2023-05-16T18:52:08.420Z,3.10
2023-05-16T18:54:36.914Z,2.97
2023-05-16T18:57:05.477Z,2.70
2023-05-16T18:59:33.907Z,2.88
2023-05-16T19:02:01.762Z,2.90
2023-05-16T19:04:31.115Z,3.10
2023-05-16T19:07:00.269Z,2.78
2023-05-16T19:09:28.866Z,2.63
2023-05-16T19:11:56.626Z,3.13
2023-05-16T19:14:24.442Z,2.67
2023-05-16T19:16:52.405Z,2.85
2023-05-16T19:19:20.439Z,2.80
2023-05-16T19:21:49.742Z,3.33
2023-05-16T19:24:17.964Z,2.47
2023-05-16T19:26:45.916Z,2.75
2023-05-16T19:29:13.794Z,2.67
2023-05-16T19:31:41.654Z,3.08
2023-05-16T19:34:09.503Z,2.33
2023-05-16T19:36:37.446Z,2.95
2023-05-16T19:39:06.839Z,2.38
2023-05-16T19:41:34.744Z,3.08
2023-05-16T19:44:03.356Z,2.40
2023-05-16T19:46:32.048Z,2.53
2023-05-16T19:49:00.414Z,2.50
2023-05-16T19:51:40.536Z,2.80
2023-05-16T19:54:10.972Z,2.42
2023-05-16T19:56:39.083Z,2.35
2023-05-16T19:59:06.963Z,2.40
2023-05-16T20:01:34.833Z,2.58
2023-05-16T20:04:02.833Z,2.40
2023-05-16T20:06:31.546Z,2.60
2023-05-16T20:08:59.344Z,2.20
2023-05-16T20:11:28.564Z,2.35
2023-05-16T20:13:59.387Z,2.40
2023-05-16T20:16:27.656Z,2.92
2023-05-16T20:18:55.592Z,2.03
2023-05-16T20:21:23.541Z,2.45
2023-05-16T20:23:51.419Z,2.05
2023-05-16T20:26:19.280Z,2.33
2023-05-16T20:28:48.486Z,2.50
2023-05-16T20:31:16.361Z,2.40
2023-05-16T20:33:44.187Z,2.20
2023-05-16T20:36:12.058Z,2.40
2023-05-16T20:38:40.013Z,2.40
2023-05-16T20:41:08.003Z,2.50
2023-05-16T20:43:35.977Z,2.75
2023-05-16T20:46:05.223Z,2.17
2023-05-16T20:48:33.064Z,2.33
2023-05-16T20:51:01.410Z,2.22
2023-05-16T20:53:29.240Z,2.35
2023-05-16T20:55:57.146Z,2.70
2023-05-16T20:58:24.964Z,2.85
2023-05-16T21:00:52.867Z,2.40
2023-05-16T21:03:22.017Z,2.45
2023-05-16T21:05:50.112Z,2.50
2023-05-16T21:08:17.920Z,2.53
2023-05-16T21:10:45.751Z,2.80
2023-05-16T21:13:13.556Z,2.22
2023-05-16T21:15:41.330Z,2.83
2023-05-16T21:18:09.357Z,2.80
2023-05-16T21:20:38.515Z,2.95
2023-05-16T21:23:06.375Z,2.53
2023-05-16T21:25:34.293Z,2.63
2023-05-16T21:28:02.086Z,2.75
2023-05-16T21:30:30.007Z,2.65
2023-05-16T21:32:58.161Z,2.30
2023-05-16T21:35:26.835Z,2.55
2023-05-16T21:37:56.135Z,2.70
2023-05-16T21:40:25.669Z,2.42
2023-05-16T21:42:53.797Z,2.20
2023-05-16T21:45:21.713Z,2.35
2023-05-16T21:47:49.605Z,2.70
2023-05-16T21:50:18.210Z,2.45
2023-05-16T21:52:46.139Z,2.70
2023-05-16T21:55:15.342Z,2.40
2023-05-16T21:57:43.223Z,2.70
2023-05-16T22:00:12.597Z,2.53
2023-05-16T22:02:41.448Z,2.90
2023-05-16T22:05:10.132Z,2.75
2023-05-16T22:07:38.583Z,2.83
2023-05-16T22:10:07.705Z,2.13
2023-05-16T22:12:36.945Z,2.28
2023-05-16T22:15:05.367Z,2.17
2023-05-16T22:17:33.338Z,1.80
2023-05-16T22:20:02.071Z,1.90
2023-05-16T22:22:29.902Z,2.00
2023-05-16T22:24:57.754Z,2.03
2023-05-16T22:27:25.684Z,2.00
2023-05-16T22:29:54.863Z,2.00
2023-05-16T22:32:22.869Z,1.93
2023-05-16T22:34:50.757Z,2.00
2023-05-16T22:37:18.573Z,2.07
2023-05-16T22:39:46.382Z,2.40
2023-05-16T22:42:14.169Z,2.37
2023-05-16T22:44:42.007Z,2.20
2023-05-16T22:47:11.191Z,2.30
2023-05-16T22:49:39.185Z,2.00
2023-05-16T22:52:07.406Z,1.97
2023-05-16T22:54:35.208Z,2.30
2023-05-16T22:57:02.981Z,2.37
2023-05-16T22:59:31.993Z,2.73
2023-05-16T23:02:00.034Z,2.40
2023-05-16T23:04:29.165Z,2.13
2023-05-16T23:06:57.066Z,2.20
2023-05-16T23:09:25.009Z,2.03
2023-05-16T23:11:52.789Z,3.10
2023-05-16T23:14:20.557Z,2.63
2023-05-16T23:16:48.385Z,2.10
2023-05-16T23:19:16.225Z,2.67
2023-05-16T23:21:45.541Z,2.23
2023-05-16T23:24:13.525Z,2.70
2023-05-16T23:26:41.352Z,2.60
2023-05-16T23:29:09.112Z,2.50
2023-05-16T23:31:37.029Z,2.50
2023-05-16T23:34:05.002Z,2.63
2023-05-16T23:36:33.097Z,2.23
2023-05-16T23:39:02.367Z,2.47
2023-05-16T23:41:30.255Z,2.40
2023-05-16T23:43:58.118Z,2.30
2023-05-16T23:46:25.944Z,2.43
2023-05-16T23:48:53.763Z,2.20
2023-05-16T23:51:21.683Z,2.63
2023-05-16T23:53:49.556Z,2.30
2023-05-16T23:56:18.770Z,2.60
2023-05-16T23:58:46.556Z,2.43
